Time;durP1;ratioP1;P1;durP2;ratioP2;P2;SDS_P1;SDS_P2;PMS_P1;PMS_P2;Temp;Humidity;BMP_temperature;BMP_pressure;BME280_temperature;BME280_humidity;BME280_pressure;Samples;Min_cycle;Max_cycle;Signal;HPM_P1;HPM_P2
2021/07/08 00:00:36;;;;;;;1.82;1.25;;;;;;;18.70;62.55;100778.20;2179827;80;31036;-62
2021/07/08 00:03:39;;;;;;;2.25;1.45;;;;;;;18.67;62.65;100772.02;2182738;81;27947;-62
2021/07/08 00:06:41;;;;;;;2.75;1.60;;;;;;;18.64;62.82;100782.22;2135229;80;29468;-65
2021/07/08 00:09:43;;;;;;;2.85;1.72;;;;;;;18.62;63.05;100776.05;2125431;83;28316;-61
2021/07/08 00:12:45;;;;;;;2.30;1.72;;;;;;;18.59;63.16;100788.01;2125051;83;29912;-67
2021/07/08 00:15:47;;;;;;;4.83;1.72;;;;;;;18.58;63.14;100788.98;2154778;81;31896;-61
2021/07/08 00:18:52;;;;;;;3.40;1.62;;;;;;;18.58;63.14;100784.92;2182681;81;34335;-61
2021/07/08 00:21:53;;;;;;;4.05;2.05;;;;;;;18.61;63.21;100793.34;2182803;81;29494;-62
2021/07/08 00:24:55;;;;;;;3.37;1.87;;;;;;;18.61;63.28;100791.48;2171516;80;27778;-62
2021/07/08 00:27:58;;;;;;;3.00;1.82;;;;;;;18.58;63.45;100790.34;2125015;83;29877;-61
2021/07/08 00:31:00;;;;;;;2.87;1.90;;;;;;;18.56;63.49;100788.74;2125427;83;30999;-62
2021/07/08 00:34:02;;;;;;;2.83;1.95;;;;;;;18.53;63.66;100779.84;2125179;83;33158;-61
2021/07/08 00:37:05;;;;;;;2.95;1.67;;;;;;;18.51;64.03;100776.89;2177218;81;30351;-62
2021/07/08 00:40:10;;;;;;;2.58;1.60;;;;;;;18.47;63.78;100774.88;2158410;81;27631;-62
2021/07/08 00:43:12;;;;;;;3.27;1.90;;;;;;;18.46;64.01;100776.36;2121212;83;28704;-61
2021/07/08 00:46:15;;;;;;;4.58;2.17;;;;;;;18.43;63.97;100779.30;2158578;80;31683;-63
2021/07/08 00:49:17;;;;;;;1.85;1.67;;;;;;;18.39;64.13;100781.38;2179466;81;35124;-62
2021/07/08 00:52:19;;;;;;;2.35;1.72;;;;;;;18.37;64.12;100788.26;2180028;81;29339;-62
2021/07/08 00:55:21;;;;;;;5.87;1.98;;;;;;;18.37;64.30;100784.19;2164910;80;27792;-61
2021/07/08 00:58:24;;;;;;;3.95;1.92;;;;;;;18.35;64.39;100783.47;2122167;83;29518;-62
2021/07/08 01:01:27;;;;;;;4.90;2.08;;;;;;;18.34;64.51;100783.09;2122416;83;32080;-63
2021/07/08 01:04:29;;;;;;;2.12;1.80;;;;;;;18.34;64.58;100781.73;2122133;83;33863;-62
2021/07/08 01:07:31;;;;;;;2.58;1.92;;;;;;;18.34;64.70;100779.49;2106180;84;29733;-62
2021/07/08 01:10:34;;;;;;;4.75;2.20;;;;;;;18.32;64.80;100780.09;2106341;84;27623;-62
2021/07/08 01:13:35;;;;;;;2.15;1.95;;;;;;;18.31;64.88;100788.73;2109494;84;28662;-62
2021/07/08 01:16:37;;;;;;;3.05;1.95;;;;;;;18.34;65.28;100799.36;2082668;83;30987;-62
2021/07/08 01:19:41;;;;;;;4.08;2.15;;;;;;;18.33;65.14;100796.75;2070654;83;34251;-61
2021/07/08 01:22:43;;;;;;;4.72;2.33;;;;;;;18.33;65.43;100794.03;2069513;86;30507;-61
2021/07/08 01:25:45;;;;;;;4.37;2.30;;;;;;;18.32;65.42;100802.68;2084271;83;27720;-61
2021/07/08 01:28:49;;;;;;;2.85;2.60;;;;;;;18.34;65.64;100812.92;2109223;84;30049;-62
2021/07/08 01:31:51;;;;;;;2.23;2.03;;;;;;;18.37;65.70;100807.75;2109704;84;31045;-62
2021/07/08 01:34:53;;;;;;;2.80;2.30;;;;;;;18.37;65.70;100795.05;2105885;84;34137;-61
2021/07/08 01:37:55;;;;;;;2.20;1.98;;;;;;;18.38;65.87;100792.70;2130252;82;29673;-61
2021/07/08 01:40:57;;;;;;;3.42;2.40;;;;;;;18.37;65.75;100796.40;2163075;82;28261;-62
2021/07/08 01:44:00;;;;;;;6.22;2.75;;;;;;;18.36;65.92;100783.84;2162539;82;29080;-63
2021/07/08 01:47:03;;;;;;;2.65;2.37;;;;;;;18.34;65.75;100781.73;2178119;81;31012;-62
2021/07/08 01:50:07;;;;;;;3.02;2.70;;;;;;;18.32;65.77;100776.03;2182824;81;32404;-61
2021/07/08 01:53:08;;;;;;;3.70;2.00;;;;;;;18.30;65.86;100774.80;2183137;81;30336;-61
2021/07/08 01:56:10;;;;;;;2.58;2.20;;;;;;;18.27;65.81;100775.02;2161576;81;27729;-71
2021/07/08 01:59:14;;;;;;;3.35;2.02;;;;;;;18.26;65.89;100784.14;2125819;81;28639;-62
2021/07/08 02:02:16;;;;;;;3.80;2.00;;;;;;;18.26;65.96;100791.42;2128682;81;31404;-69
2021/07/08 02:05:19;;;;;;;5.67;1.80;;;;;;;18.27;66.17;100786.37;2125299;83;33716;-62
2021/07/08 02:08:20;;;;;;;2.87;2.17;;;;;;;18.24;66.17;100771.17;2124956;83;30023;-61
2021/07/08 02:11:22;;;;;;;5.22;2.20;;;;;;;18.23;66.19;100769.44;2126962;81;27698;-61
2021/07/08 02:14:26;;;;;;;3.17;2.22;;;;;;;18.21;66.24;100762.79;2183166;80;29071;-61
2021/07/08 02:17:28;;;;;;;5.95;2.17;;;;;;;18.20;66.34;100769.19;2182864;81;31079;-62
2021/07/08 02:20:30;;;;;;;4.58;2.02;;;;;;;18.19;66.51;100767.97;2182557;81;34067;-69
2021/07/08 02:23:32;;;;;;;3.92;2.20;;;;;;;18.17;66.62;100772.63;2141400;80;30447;-67
2021/07/08 02:26:34;;;;;;;3.70;2.40;;;;;;;18.15;66.93;100782.22;2125222;83;27738;-62
2021/07/08 02:29:37;;;;;;;5.47;2.72;;;;;;;18.17;67.16;100788.40;2125270;83;29842;-62
2021/07/08 02:32:40;;;;;;;3.35;2.72;;;;;;;18.17;67.60;100785.69;2149539;80;31828;-62
2021/07/08 02:35:42;;;;;;;5.42;2.70;;;;;;;18.17;67.45;100788.40;2182770;81;32990;-62
2021/07/08 02:38:44;;;;;;;3.62;2.67;;;;;;;18.19;67.76;100789.16;2181229;81;30499;-62
2021/07/08 02:41:46;;;;;;;4.25;2.92;;;;;;;18.17;67.61;100785.69;2173888;80;27802;-61
2021/07/08 02:44:49;;;;;;;4.40;3.12;;;;;;;18.16;67.87;100788.02;2122027;83;29543;-71
2021/07/08 02:47:53;;;;;;;4.33;2.80;;;;;;;18.19;68.09;100793.73;2122260;83;31457;-68
2021/07/08 02:50:57;;;;;;;3.47;3.17;;;;;;;18.21;68.13;100802.11;2122770;83;33608;-62
2021/07/08 02:53:59;;;;;;;3.33;2.30;;;;;;;18.24;68.32;100801.52;2123020;83;29319;-62
2021/07/08 02:57:02;;;;;;;3.37;2.60;;;;;;;18.20;67.99;100809.02;2127333;83;27679;-62
2021/07/08 03:00:10;;;;;;;3.70;2.58;;;;;;;18.20;67.99;100809.02;2126796;83;28674;-62
2021/07/08 03:03:12;;;;;;;3.22;2.40;;;;;;;18.20;68.13;100811.23;2159649;80;31023;-63
2021/07/08 03:06:15;;;;;;;3.17;2.52;;;;;;;18.20;68.26;100800.38;2179579;81;33105;-71
2021/07/08 03:09:17;;;;;;;2.95;2.45;;;;;;;18.17;68.22;100797.04;2179759;81;29407;-62
2021/07/08 03:12:19;;;;;;;6.15;3.98;;;;;;;18.16;68.36;100785.31;2165113;80;27695;-61
2021/07/08 03:15:22;;;;;;;21.00;15.30;;;;;;;18.15;68.46;100761.03;2122533;83;29067;-62
2021/07/08 03:18:25;;;;;;;13.00;10.13;;;;;;;18.13;68.62;100752.14;2122287;83;31707;-62
2021/07/08 03:21:27;;;;;;;4.03;3.20;;;;;;;18.10;68.65;100762.73;2122164;83;33816;-62
2021/07/08 03:24:31;;;;;;;4.37;2.17;;;;;;;18.04;68.54;100758.60;2161734;80;29402;-71
2021/07/08 03:27:33;;;;;;;2.92;2.62;;;;;;;18.02;68.60;100757.00;2122247;83;27736;-62
2021/07/08 03:30:35;;;;;;;2.80;2.33;;;;;;;18.00;68.75;100758.48;2122210;83;29919;-66
2021/07/08 03:33:37;;;;;;;5.17;2.77;;;;;;;17.98;68.78;100759.08;2161554;80;33141;-61
2021/07/08 03:36:39;;;;;;;6.47;3.15;;;;;;;17.98;68.96;100752.30;2179262;81;35143;-61
2021/07/08 03:39:41;;;;;;;4.87;2.52;;;;;;;18.00;68.89;100761.66;2179524;81;30317;-61
2021/07/08 03:42:44;;;;;;;4.28;2.70;;;;;;;18.02;69.06;100768.73;2159215;81;27751;-62
2021/07/08 03:45:47;;;;;;;5.10;2.58;;;;;;;18.05;68.94;100768.98;2122235;83;28653;-62
2021/07/08 03:48:49;;;;;;;6.08;2.92;;;;;;;18.09;69.11;100777.27;2122582;83;32365;-68
2021/07/08 03:51:51;;;;;;;8.33;3.10;;;;;;;18.12;69.03;100774.81;2127068;81;34178;-62
2021/07/08 03:54:53;;;;;;;3.70;3.10;;;;;;;18.16;69.07;100784.45;2179615;81;30032;-61
2021/07/08 03:57:57;;;;;;;3.98;3.58;;;;;;;18.20;69.24;100781.39;2150740;80;27692;-61
2021/07/08 04:01:00;;;;;;;4.75;3.58;;;;;;;18.23;69.08;100795.20;2127322;83;29075;-64
2021/07/08 04:04:03;;;;;;;4.58;3.72;;;;;;;18.24;68.87;100787.95;2169789;80;31705;-70
2021/07/08 04:07:06;;;;;;;3.52;3.22;;;;;;;18.26;69.02;100787.36;2172226;80;33021;-67
2021/07/08 04:10:10;;;;;;;7.25;3.92;;;;;;;18.31;68.99;100790.09;2163965;80;29333;-59
2021/07/08 04:13:16;;;;;;;7.25;4.10;;;;;;;18.33;69.01;100780.00;2180425;81;27667;-59
2021/07/08 04:16:18;;;;;;;11.00;4.47;;;;;;;18.35;68.88;100777.16;2179712;81;29037;-59
2021/07/08 04:19:20;;;;;;;4.60;4.15;;;;;;;18.35;68.87;100778.05;2133311;80;31137;-59
2021/07/08 04:22:23;;;;;;;6.17;5.47;;;;;;;18.36;69.00;100772.11;2140331;80;33439;-59
2021/07/08 04:25:26;;;;;;;8.58;4.45;;;;;;;18.37;68.92;100774.70;2179918;81;30029;-60
2021/07/08 04:28:29;;;;;;;5.40;4.65;;;;;;;18.36;68.98;100782.48;2146293;80;27700;-60
2021/07/08 04:31:32;;;;;;;4.75;4.08;;;;;;;18.35;68.97;100788.02;2122476;83;28640;-60
2021/07/08 04:34:34;;;;;;;6.35;4.10;;;;;;;18.37;69.03;100781.98;2176713;80;31069;-60
2021/07/08 04:37:41;;;;;;;6.60;5.03;;;;;;;18.39;69.11;100782.73;2162737;80;34124;-60
2021/07/08 04:40:45;;;;;;;5.42;4.03;;;;;;;18.41;68.96;100782.61;2120012;83;30028;-60
2021/07/08 04:43:47;;;;;;;7.08;5.40;;;;;;;18.41;69.04;100780.78;2120017;84;27738;-60
2021/07/08 04:46:49;;;;;;;9.65;6.55;;;;;;;18.43;69.14;100766.61;2120546;81;29904;-60
2021/07/08 04:49:51;;;;;;;6.72;6.03;;;;;;;18.47;69.25;100769.95;2180062;81;31969;-60
2021/07/08 04:53:00;;;;;;;8.38;6.90;;;;;;;18.48;69.22;100760.33;2180445;81;33307;-60
2021/07/08 04:56:06;;;;;;;8.98;6.78;;;;;;;18.52;69.24;100765.05;2180274;81;29348;-60
2021/07/08 04:59:16;;;;;;;8.33;6.83;;;;;;;18.54;69.08;100771.20;2134966;81;27738;-60
2021/07/08 05:02:19;;;;;;;9.10;7.58;;;;;;;18.53;69.11;100774.92;2119498;84;28767;-61
2021/07/08 05:05:22;;;;;;;9.43;8.08;;;;;;;18.57;69.14;100779.63;2118881;84;31156;-60
2021/07/08 05:08:25;;;;;;;13.72;9.60;;;;;;;18.62;69.28;100783.71;2119831;83;33095;-64
2021/07/08 05:11:27;;;;;;;13.88;10.80;;;;;;;18.65;69.19;100773.98;2179954;81;29289;-60
2021/07/08 05:14:30;;;;;;;14.93;12.95;;;;;;;18.65;69.23;100773.98;2179814;81;27619;-60
2021/07/08 05:17:34;;;;;;;14.28;11.43;;;;;;;18.68;69.24;100771.52;2168834;81;28678;-62
2021/07/08 05:20:39;;;;;;;13.35;11.70;;;;;;;18.67;69.21;100763.88;2118519;83;27738;-62
2021/07/08 05:23:42;;;;;;;15.00;12.15;;;;;;;18.67;69.29;100764.36;2119142;83;33919;-60
2021/07/08 05:26:45;;;;;;;14.70;12.90;;;;;;;18.67;69.33;100760.28;2118255;84;30619;-62
2021/07/08 05:29:49;;;;;;;17.15;12.07;;;;;;;18.67;69.17;100765.23;2174732;81;28534;-61
2021/07/08 05:32:52;;;;;;;20.95;13.40;;;;;;;18.71;69.27;100760.44;2179275;81;28645;-60
2021/07/08 05:35:55;;;;;;;13.38;11.33;;;;;;;18.74;69.24;100760.67;2180085;81;31008;-60
2021/07/08 05:38:59;;;;;;;15.70;12.47;;;;;;;18.74;69.17;100762.91;2137681;81;33653;-60
2021/07/08 05:42:03;;;;;;;17.27;12.37;;;;;;;18.79;69.34;100757.12;2079909;85;30155;-60
2021/07/08 05:45:07;;;;;;;15.10;12.23;;;;;;;18.84;69.30;100759.00;2080194;85;27699;-60
2021/07/08 05:48:09;;;;;;;15.80;12.40;;;;;;;18.89;69.35;100760.00;2080337;84;28717;-61
2021/07/08 05:51:12;;;;;;;15.95;13.03;;;;;;;18.96;69.30;100762.63;2079779;85;30842;-76
2021/07/08 05:54:15;;;;;;;16.30;13.78;;;;;;;19.03;69.18;100758.97;2079970;85;34031;-61
2021/07/08 05:57:17;;;;;;;14.63;12.30;;;;;;;19.08;69.04;100756.73;2080032;85;29365;-60
2021/07/08 06:00:21;;;;;;;14.68;13.08;;;;;;;19.19;69.08;100760.85;2079978;85;27653;-61
2021/07/08 06:03:24;;;;;;;13.45;11.53;;;;;;;19.28;68.92;100753.31;2080741;84;29651;-61
2021/07/08 06:06:28;;;;;;;12.70;10.80;;;;;;;19.50;68.78;100757.05;2080810;84;31017;-60
2021/07/08 06:09:30;;;;;;;13.70;10.85;;;;;;;19.69;68.53;100760.49;2044361;84;33166;-60
2021/07/08 06:12:33;;;;;;;12.33;10.50;;;;;;;19.92;68.33;100769.16;2016708;88;29883;-60
2021/07/08 06:15:36;;;;;;;13.95;11.50;;;;;;;20.15;68.17;100779.02;2080456;84;27666;-60
2021/07/08 06:18:38;;;;;;;10.63;9.48;;;;;;;20.32;67.67;100786.28;2080318;85;29036;-60
2021/07/08 06:21:41;;;;;;;10.88;9.68;;;;;;;20.49;67.49;100791.66;2080236;85;31049;-67
2021/07/08 06:24:43;;;;;;;10.00;8.90;;;;;;;20.67;67.22;100796.55;2080697;84;33333;-60
2021/07/08 06:27:45;;;;;;;10.38;8.10;;;;;;;20.81;66.84;100799.50;2080249;85;30226;-60
2021/07/08 06:30:47;;;;;;;8.45;7.65;;;;;;;20.94;66.25;100796.94;2080214;84;27702;-60
2021/07/08 06:33:49;;;;;;;10.15;9.03;;;;;;;21.09;66.17;100795.28;2080157;85;29063;-60
2021/07/08 06:36:51;;;;;;;11.03;8.78;;;;;;;21.21;65.90;100801.50;2058178;84;32263;-60
2021/07/08 06:39:53;;;;;;;9.03;8.20;;;;;;;21.34;65.63;100797.21;2031590;86;34182;-60
2021/07/08 06:42:58;;;;;;;12.43;9.15;;;;;;;21.36;65.12;100800.16;2082541;85;30159;-61
2021/07/08 06:45:59;;;;;;;9.78;8.78;;;;;;;21.35;65.23;100803.03;2076561;83;28193;-61
2021/07/08 06:49:02;;;;;;;8.78;7.67;;;;;;;21.39;65.34;100797.17;2075885;85;30059;-61
2021/07/08 06:52:05;;;;;;;11.57;8.08;;;;;;;21.46;64.87;100797.48;2076603;85;32291;-62
2021/07/08 06:55:09;;;;;;;10.70;7.28;;;;;;;21.58;64.76;100793.34;2076559;85;33399;-61
2021/07/08 06:58:11;;;;;;;9.70;7.45;;;;;;;21.74;64.40;100785.55;2109115;83;29310;-62
2021/07/08 07:01:13;;;;;;;8.73;7.83;;;;;;;22.01;64.21;100793.09;2109723;84;27617;-61
2021/07/08 07:04:15;;;;;;;9.45;7.75;;;;;;;22.13;63.63;100795.20;2109377;83;29494;-62
2021/07/08 07:07:18;;;;;;;12.65;9.63;;;;;;;22.33;63.60;100793.89;2083381;83;32251;-68
2021/07/08 07:10:21;;;;;;;10.72;9.60;;;;;;;22.54;63.56;100796.53;2070496;84;33841;-68
2021/07/08 07:13:25;;;;;;;12.30;9.37;;;;;;;22.73;62.94;100792.09;2070268;85;29378;-68
2021/07/08 07:16:36;;;;;;;11.08;8.85;;;;;;;22.82;62.37;100789.87;2076974;83;27511;-67
2021/07/08 07:19:54;;;;;;;9.10;7.53;;;;;;;22.99;62.22;100776.49;2075720;85;28674;-68
2021/07/08 07:23:05;;;;;;;9.08;8.03;;;;;;;23.38;62.11;100768.22;2074651;85;27670;-67
2021/07/08 07:26:21;;;;;;;8.73;7.40;;;;;;;23.91;61.77;100771.32;2083294;83;27906;-68
2021/07/08 07:29:37;;;;;;;10.35;7.87;;;;;;;24.25;60.71;100774.83;2090221;83;29366;-63
2021/07/08 07:32:39;;;;;;;10.03;8.15;;;;;;;24.37;60.18;100777.70;2103869;83;27657;-61
2021/07/08 07:35:41;;;;;;;7.95;7.25;;;;;;;24.36;59.59;100784.71;2076218;84;29054;-61
2021/07/08 07:38:44;;;;;;;9.35;7.15;;;;;;;24.27;59.25;100791.45;2063516;85;32244;-61
2021/07/08 07:41:46;;;;;;;7.83;6.72;;;;;;;24.12;59.06;100797.97;2084432;84;33750;-63
2021/07/08 07:44:48;;;;;;;9.20;6.37;;;;;;;24.02;59.42;100791.67;2066032;85;30202;-61
2021/07/08 07:47:52;;;;;;;7.72;6.92;;;;;;;24.02;59.21;100794.41;2086075;85;27697;-62
2021/07/08 07:50:54;;;;;;;13.90;6.80;;;;;;;23.87;59.14;100790.42;2101503;84;29910;-64
2021/07/08 07:53:56;;;;;;;8.83;7.20;;;;;;;23.71;59.01;100777.41;2119030;83;32489;-61
2021/07/08 07:57:01;;;;;;;11.35;7.45;;;;;;;23.48;58.87;100755.40;2087186;83;33017;-61
2021/07/08 08:00:05;;;;;;;9.93;7.78;;;;;;;23.36;58.90;100750.61;2071032;86;29351;-61
2021/07/08 08:03:07;;;;;;;;;;;;;;;23.31;58.79;100754.28;2088571;85;28196;-63
2021/07/08 08:09:30;;;;;;;11.45;7.03;;;;;;;23.02;59.06;100751.09;2086024;84;32253;-61
2021/07/08 08:12:34;;;;;;;7.85;6.80;;;;;;;22.82;59.23;100748.91;2074280;84;34140;-61
2021/07/08 08:15:36;;;;;;;7.37;6.47;;;;;;;22.74;59.50;100761.05;2086044;85;29318;-61
2021/07/08 08:18:39;;;;;;;8.40;7.28;;;;;;;22.69;59.66;100775.14;2085763;84;28303;-61
2021/07/08 08:21:40;;;;;;;8.65;7.25;;;;;;;22.66;59.77;100778.15;2079267;83;28414;-61
2021/07/08 08:24:42;;;;;;;9.43;6.80;;;;;;;22.61;59.81;100770.39;2085406;85;32323;-61
2021/07/08 08:27:44;;;;;;;9.80;7.03;;;;;;;22.59;60.01;100765.58;2068641;84;33853;-61
2021/07/08 08:30:47;;;;;;;10.20;6.20;;;;;;;22.60;60.19;100755.02;2085407;85;30488;-61
2021/07/08 08:33:50;;;;;;;6.78;6.08;;;;;;;22.68;60.27;100758.39;2066813;85;27706;-61
2021/07/08 08:36:51;;;;;;;16.90;7.25;;;;;;;22.78;60.20;100768.44;2084886;85;29903;-61
2021/07/08 08:39:54;;;;;;;6.80;6.17;;;;;;;22.85;60.02;100777.79;2101172;84;32235;-61
2021/07/08 08:42:56;;;;;;;7.85;7.10;;;;;;;22.88;60.04;100781.60;2108730;84;34372;-61
2021/07/08 08:45:59;;;;;;;7.70;6.40;;;;;;;22.87;60.03;100788.92;2106116;84;30544;-61
2021/07/08 08:49:05;;;;;;;8.90;6.83;;;;;;;22.91;59.97;100797.71;2082458;84;28301;-61
2021/07/08 08:52:09;;;;;;;8.20;6.80;;;;;;;22.89;60.04;100792.89;2064300;85;29524;-62
2021/07/08 08:55:11;;;;;;;7.58;6.58;;;;;;;22.87;60.08;100797.64;2126417;83;31172;-61
2021/07/08 08:58:18;;;;;;;12.13;8.10;;;;;;;22.89;60.05;100784.18;2142159;80;33161;-62
2021/07/08 09:01:20;;;;;;;7.15;6.30;;;;;;;22.90;59.90;100778.23;2143221;80;29837;-61
2021/07/08 09:04:32;;;;;;;8.10;6.92;;;;;;;22.89;59.99;100777.86;2179988;81;27618;-61
2021/07/08 09:07:35;;;;;;;7.83;6.85;;;;;;;22.98;60.06;100782.45;2175242;80;28654;-61
2021/07/08 09:10:37;;;;;;;6.60;5.30;;;;;;;23.08;59.90;100789.78;2150343;81;32405;-62
2021/07/08 09:13:48;;;;;;;8.65;6.22;;;;;;;23.19;59.97;100790.98;2179676;81;48630;-64
2021/07/08 09:16:51;;;;;;;7.10;6.50;;;;;;;23.34;59.82;100794.13;2179938;81;29409;-62
2021/07/08 09:20:07;;;;;;;6.47;5.87;;;;;;;23.45;59.41;100793.98;2135871;80;27569;-62
2021/07/08 09:23:18;;;;;;;7.30;6.67;;;;;;;23.55;59.47;100800.78;2116255;83;28751;-62
2021/07/08 09:26:22;;;;;;;6.45;5.85;;;;;;;23.74;59.69;100794.89;2122537;83;31001;-62
2021/07/08 09:29:31;;;;;;;11.30;6.05;;;;;;;23.91;59.17;100791.84;2132361;80;33046;-61
2021/07/08 09:32:35;;;;;;;6.40;5.75;;;;;;;24.15;59.08;100792.69;2064537;85;29390;-62
2021/07/08 09:35:43;;;;;;;7.40;6.05;;;;;;;24.45;58.83;100788.39;2070583;86;27709;-61
2021/07/08 09:38:51;;;;;;;6.67;6.08;;;;;;;24.71;58.69;100800.84;2145301;80;28673;-61
2021/07/08 09:41:54;;;;;;;7.60;5.60;;;;;;;24.86;58.25;100802.02;2179606;81;30992;-61
2021/07/08 09:45:11;;;;;;;9.08;6.53;;;;;;;24.95;57.79;100802.06;2179503;81;33072;-61
2021/07/08 09:48:18;;;;;;;7.03;6.33;;;;;;;24.95;57.51;100789.73;2168795;80;29320;-61
2021/07/08 09:51:33;;;;;;;8.03;5.95;;;;;;;24.79;57.08;100784.47;2122692;83;27703;-61
2021/07/08 09:57:49;;;;;;;6.03;5.42;;;;;;;24.56;57.23;100772.59;2122455;83;31424;-61
2021/07/08 10:00:54;;;;;;;8.90;5.37;;;;;;;24.55;57.14;100772.25;2122578;83;32537;-61
2021/07/08 10:03:57;;;;;;;6.00;5.42;;;;;;;24.60;57.11;100775.87;2122635;83;30026;-61
2021/07/08 10:07:00;;;;;;;9.10;6.03;;;;;;;24.63;57.17;100770.58;2109332;83;27717;-62
2021/07/08 10:10:07;;;;;;;6.62;5.15;;;;;;;24.63;56.86;100765.98;2122091;83;32362;-61
2021/07/08 10:13:11;;;;;;;10.65;5.80;;;;;;;24.74;57.11;100764.89;2122274;83;31145;-61
2021/07/08 10:16:20;;;;;;;7.80;5.72;;;;;;;24.89;56.70;100769.30;2092086;83;32992;-63
2021/07/08 10:19:24;;;;;;;5.55;5.00;;;;;;;24.90;56.74;100763.33;2070546;86;29320;-61
2021/07/08 10:22:27;;;;;;;5.97;5.37;;;;;;;24.98;56.69;100763.38;2127988;83;27723;-61
2021/07/08 10:25:30;;;;;;;6.15;5.60;;;;;;;25.02;56.49;100768.38;2144304;80;28879;-61
2021/07/08 10:28:37;;;;;;;6.17;5.55;;;;;;;25.11;56.52;100752.01;2158531;81;31439;-63
2021/07/08 10:31:41;;;;;;;6.55;5.85;;;;;;;25.21;56.18;100732.19;2176985;80;32953;-61
2021/07/08 10:34:49;;;;;;;6.62;5.75;;;;;;;25.24;55.87;100726.38;2180259;81;30146;-61
2021/07/08 10:37:57;;;;;;;5.72;5.22;;;;;;;25.36;55.71;100732.95;2180236;81;27961;-66
2021/07/08 10:41:15;;;;;;;5.80;5.30;;;;;;;25.54;55.75;100728.28;2180499;81;28638;-61
2021/07/08 10:44:45;;;;;;;6.70;6.10;;;;;;;25.70;55.62;100711.05;2149131;80;31083;-61
2021/07/08 10:47:50;;;;;;;6.85;6.25;;;;;;;25.85;54.83;100723.61;2124395;83;34240;-61
2021/07/08 10:50:54;;;;;;;7.85;6.30;;;;;;;25.83;54.86;100729.77;2124946;83;29451;-66
2021/07/08 10:53:57;;;;;;;7.20;6.15;;;;;;;25.72;54.68;100716.36;2178484;81;27667;-60
2021/07/08 10:57:02;;;;;;;7.72;6.92;;;;;;;25.50;54.68;100716.44;2183462;81;29422;-60
2021/07/08 11:00:14;;;;;;;7.22;6.60;;;;;;;25.38;54.89;100706.22;2175365;80;31020;-62
2021/07/08 11:03:45;;;;;;;6.83;5.92;;;;;;;25.45;54.98;100707.34;2113680;83;32973;-61
2021/07/08 11:06:48;;;;;;;8.05;6.53;;;;;;;25.53;55.21;100720.23;2125232;83;29375;-61
2021/07/08 11:10:06;;;;;;;6.30;5.72;;;;;;;25.65;55.16;100721.65;2125585;83;27691;-60
2021/07/08 11:13:28;;;;;;;6.97;6.37;;;;;;;25.78;55.11;100722.56;2181743;81;28774;-61
2021/07/08 11:16:46;;;;;;;6.92;6.33;;;;;;;25.91;54.55;100717.46;2072339;85;31049;-61
2021/07/08 11:19:51;;;;;;;7.60;6.85;;;;;;;26.07;54.41;100715.25;2115349;84;32492;-61
2021/07/08 11:22:55;;;;;;;11.22;7.25;;;;;;;26.23;54.37;100703.98;2178311;81;29491;-61
2021/07/08 11:25:58;;;;;;;8.98;7.75;;;;;;;26.46;54.10;100697.84;2182827;81;27604;-61
2021/07/08 11:29:01;;;;;;;8.23;7.42;;;;;;;26.55;52.84;100685.84;2182987;81;29254;-65
2021/07/08 11:32:26;;;;;;;11.45;8.20;;;;;;;26.55;53.17;100685.84;2148146;80;31706;-61
2021/07/08 11:35:36;;;;;;;9.83;7.92;;;;;;;26.58;52.86;100690.97;2125390;83;32963;-66
2021/07/08 11:38:45;;;;;;;8.43;7.42;;;;;;;26.48;52.82;100703.50;2125473;83;29411;-61
2021/07/08 11:41:49;;;;;;;9.43;8.38;;;;;;;26.47;53.28;100706.43;2139765;81;27946;-61
2021/07/08 11:44:53;;;;;;;9.33;6.80;;;;;;;26.54;52.83;100690.99;2180021;81;28793;-61
2021/07/08 11:47:58;;;;;;;8.73;7.45;;;;;;;26.69;52.66;100684.27;2179650;81;31152;-61
2021/07/08 11:51:02;;;;;;;9.70;8.75;;;;;;;26.93;52.62;100671.57;2166863;80;34190;-64
2021/07/08 11:54:09;;;;;;;9.55;7.83;;;;;;;27.09;52.37;100674.78;2109636;83;29571;-62
2021/07/08 11:57:10;;;;;;;7.30;6.58;;;;;;;27.23;52.15;100673.21;2122991;83;27699;-61
2021/07/08 12:00:25;;;;;;;8.30;7.50;;;;;;;27.40;52.03;100663.86;2122236;83;29496;-62
2021/07/08 12:03:43;;;;;;;7.10;6.30;;;;;;;27.51;51.59;100659.90;2081724;84;32326;-61
2021/07/08 12:06:47;;;;;;;11.57;7.50;;;;;;;27.64;51.36;100662.05;2081340;84;33790;-60
2021/07/08 12:09:52;;;;;;;8.18;7.10;;;;;;;27.68;51.17;100659.28;2158928;80;27719;-67
2021/07/08 12:12:56;;;;;;;7.45;6.75;;;;;;;27.72;50.94;100656.52;2180244;81;28189;-61
2021/07/08 12:16:06;;;;;;;8.25;6.55;;;;;;;27.78;50.77;100651.34;2180230;81;28649;-61
2021/07/08 12:19:31;;;;;;;9.50;7.53;;;;;;;27.87;50.78;100652.48;2177217;80;30972;-61
2021/07/08 12:23:08;;;;;;;8.63;7.55;;;;;;;27.82;50.52;100644.41;2133275;83;33411;-60
2021/07/08 12:26:31;;;;;;;10.20;8.00;;;;;;;27.83;50.35;100644.24;2089628;84;29313;-61
2021/07/08 12:29:37;;;;;;;7.83;7.03;;;;;;;27.83;49.99;100640.62;2089048;84;27673;-60
2021/07/08 12:32:39;;;;;;;10.03;7.37;;;;;;;27.74;50.40;100632.42;2088848;85;28839;-61
2021/07/08 12:35:48;;;;;;;8.53;7.08;;;;;;;27.73;50.40;100632.59;2089043;85;31802;-61
2021/07/08 12:38:50;;;;;;;9.00;7.47;;;;;;;27.68;50.58;100638.64;2088608;84;33675;-60
2021/07/08 12:41:53;;;;;;;9.85;8.93;;;;;;;27.68;50.39;100637.27;2090482;84;30074;-60
2021/07/08 12:45:08;;;;;;;8.13;7.28;;;;;;;27.52;50.24;100638.22;2094543;85;27841;-60
2021/07/08 12:48:14;;;;;;;8.80;7.90;;;;;;;27.47;50.44;100631.02;2094593;84;29431;-61
2021/07/08 12:51:15;;;;;;;8.95;8.15;;;;;;;27.38;50.76;100626.57;2094541;85;30976;-61
2021/07/08 12:54:20;;;;;;;9.28;7.78;;;;;;;27.43;50.73;100634.63;2094075;84;33950;-61
2021/07/08 12:57:22;;;;;;;8.85;7.45;;;;;;;27.49;50.75;100633.58;2094976;85;30158;-61
2021/07/08 13:00:29;;;;;;;12.05;7.85;;;;;;;27.46;50.84;100636.17;2125271;83;27720;-60
2021/07/08 13:03:32;;;;;;;9.90;8.90;;;;;;;27.48;51.04;100641.48;2114506;83;29423;-61
2021/07/08 13:06:34;;;;;;;10.50;9.00;;;;;;;27.50;51.00;100636.67;2115484;84;31037;-61
2021/07/08 13:09:37;;;;;;;9.03;7.67;;;;;;;27.47;50.61;100632.92;2115130;84;33821;-61
2021/07/08 13:12:39;;;;;;;8.85;7.95;;;;;;;27.45;50.90;100630.30;2082554;83;30121;-61
2021/07/08 13:15:49;;;;;;;11.75;9.35;;;;;;;27.50;51.02;100635.30;2079218;85;27715;-61
2021/07/08 13:18:52;;;;;;;12.63;9.43;;;;;;;27.48;50.84;100629.11;2078810;84;28678;-61
2021/07/08 13:21:54;;;;;;;10.15;8.93;;;;;;;27.46;50.93;100627.92;2102022;83;31996;-61
2021/07/08 13:24:59;;;;;;;10.28;7.90;;;;;;;27.52;51.08;100628.59;2115166;84;33102;-65
2021/07/08 13:28:01;;;;;;;9.80;8.80;;;;;;;27.53;51.07;100623.43;2093474;84;29343;-62
2021/07/08 13:31:11;;;;;;;10.10;7.72;;;;;;;27.53;50.87;100613.80;2104359;83;27678;-61
2021/07/08 13:34:18;;;;;;;9.73;8.68;;;;;;;27.33;50.93;100622.95;2082175;85;29102;-62
2021/07/08 13:37:23;;;;;;;11.00;8.08;;;;;;;27.27;51.11;100619.56;2077024;85;31048;-61
2021/07/08 13:40:26;;;;;;;9.43;8.63;;;;;;;27.30;51.44;100607.67;2084563;83;32964;-62
2021/07/08 13:43:34;;;;;;;9.48;8.50;;;;;;;27.40;51.23;100605.20;2083873;83;30126;-61
2021/07/08 13:46:43;;;;;;;10.32;8.83;;;;;;;27.40;51.21;100608.84;2076574;85;27646;-62
2021/07/08 13:49:46;;;;;;;13.58;11.18;;;;;;;27.39;51.24;100601.61;2076418;85;28732;-61
2021/07/08 13:52:48;;;;;;;10.03;9.03;;;;;;;27.34;51.17;100604.04;2108013;83;32179;-61
2021/07/08 13:55:51;;;;;;;10.98;8.40;;;;;;;27.28;51.30;100594.61;2112921;84;32999;-61
2021/07/08 13:58:54;;;;;;;8.88;7.97;;;;;;;27.27;51.51;100592.05;2112670;84;30164;-60
2021/07/08 14:01:56;;;;;;;10.70;9.70;;;;;;;27.36;51.54;100587.37;2092082;83;27688;-61
2021/07/08 14:04:58;;;;;;;9.28;8.45;;;;;;;27.44;51.36;100587.31;2076449;85;28689;-61
2021/07/08 14:08:00;;;;;;;12.25;9.00;;;;;;;27.52;51.36;100583.69;2076541;85;31365;-60
2021/07/08 14:11:03;;;;;;;11.10;9.13;;;;;;;27.51;51.04;100597.11;2085653;83;34244;-62
2021/07/08 14:14:05;;;;;;;10.20;8.95;;;;;;;27.35;51.27;100600.78;2112728;84;29513;-61
2021/07/08 14:17:07;;;;;;;11.85;9.48;;;;;;;27.29;51.47;100592.73;2112860;83;28214;-61
2021/07/08 14:20:11;;;;;;;11.63;9.85;;;;;;;27.29;51.55;100596.33;2112647;83;29523;-61